sensor_id;sensor_type;location;lat;lon;timestamp;temperature;humidity
20125;DHT22;10223;50.862;4.360;2023-05-10T00:00:13;13.00;99.90
20125;DHT22;10223;50.862;4.360;2023-05-10T00:02:40;13.00;99.90
20125;DHT22;10223;50.862;4.360;2023-05-10T00:05:07;13.00;99.90
20125;DHT22;10223;50.862;4.360;2023-05-10T00:07:34;13.20;99.90
20125;DHT22;10223;50.862;4.360;2023-05-10T00:10:01;13.10;99.90
20125;DHT22;10223;50.862;4.360;2023-05-10T00:12:28;13.10;99.90
20125;DHT22;10223;50.862;4.360;2023-05-10T00:14:55;13.10;99.90
20125;DHT22;10223;50.862;4.360;2023-05-10T00:17:23;13.10;99.90
20125;DHT22;10223;50.862;4.360;2023-05-10T00:19:50;13.20;99.90
20125;DHT22;10223;50.862;4.360;2023-05-10T00:22:19;13.20;99.90
20125;DHT22;10223;50.862;4.360;2023-05-10T00:24:46;13.20;99.90
20125;DHT22;10223;50.862;4.360;2023-05-10T00:27:13;13.10;99.90
20125;DHT22;10223;50.862;4.360;2023-05-10T00:29:40;13.10;99.90
20125;DHT22;10223;50.862;4.360;2023-05-10T00:32:07;13.10;99.90
20125;DHT22;10223;50.862;4.360;2023-05-10T00:34:38;13.20;99.90
20125;DHT22;10223;50.862;4.360;2023-05-10T00:37:06;13.10;99.90
20125;DHT22;10223;50.862;4.360;2023-05-10T00:39:33;13.10;99.90
20125;DHT22;10223;50.862;4.360;2023-05-10T00:42:00;13.10;99.90
20125;DHT22;10223;50.862;4.360;2023-05-10T00:44:27;13.10;99.90
20125;DHT22;10223;50.862;4.360;2023-05-10T00:46:54;13.20;99.90
20125;DHT22;10223;50.862;4.360;2023-05-10T00:49:21;13.10;99.90
20125;DHT22;10223;50.862;4.360;2023-05-10T00:51:50;13.10;99.90
20125;DHT22;10223;50.862;4.360;2023-05-10T00:54:17;13.20;99.90
20125;DHT22;10223;50.862;4.360;2023-05-10T00:56:44;13.20;99.90
20125;DHT22;10223;50.862;4.360;2023-05-10T00:59:14;13.20;99.90
20125;DHT22;10223;50.862;4.360;2023-05-10T01:01:42;13.20;99.90
20125;DHT22;10223;50.862;4.360;2023-05-10T01:04:09;13.20;99.90
20125;DHT22;10223;50.862;4.360;2023-05-10T01:06:38;13.20;99.90
20125;DHT22;10223;50.862;4.360;2023-05-10T01:09:06;13.20;99.90
20125;DHT22;10223;50.862;4.360;2023-05-10T01:11:33;13.20;99.90
20125;DHT22;10223;50.862;4.360;2023-05-10T01:14:01;13.20;99.90
20125;DHT22;10223;50.862;4.360;2023-05-10T01:16:31;13.20;99.90
20125;DHT22;10223;50.862;4.360;2023-05-10T01:18:59;13.20;99.90
20125;DHT22;10223;50.862;4.360;2023-05-10T01:21:31;13.30;99.90
20125;DHT22;10223;50.862;4.360;2023-05-10T01:27:23;13.20;99.90
20125;DHT22;10223;50.862;4.360;2023-05-10T01:30:08;13.20;99.90
20125;DHT22;10223;50.862;4.360;2023-05-10T01:32:45;13.10;99.90
20125;DHT22;10223;50.862;4.360;2023-05-10T01:35:19;13.30;99.90
20125;DHT22;10223;50.862;4.360;2023-05-10T01:37:52;13.20;99.90
20125;DHT22;10223;50.862;4.360;2023-05-10T01:40:25;13.10;99.90
20125;DHT22;10223;50.862;4.360;2023-05-10T01:43:01;13.20;99.90
20125;DHT22;10223;50.862;4.360;2023-05-10T01:45:33;13.20;99.90
20125;DHT22;10223;50.862;4.360;2023-05-10T01:48:06;13.20;99.90
20125;DHT22;10223;50.862;4.360;2023-05-10T01:50:36;13.20;99.90
20125;DHT22;10223;50.862;4.360;2023-05-10T01:53:05;13.20;99.90
20125;DHT22;10223;50.862;4.360;2023-05-10T01:55:36;13.10;99.90
20125;DHT22;10223;50.862;4.360;2023-05-10T01:58:07;13.10;99.90
20125;DHT22;10223;50.862;4.360;2023-05-10T02:00:35;13.20;99.90
20125;DHT22;10223;50.862;4.360;2023-05-10T02:03:07;13.30;99.90
20125;DHT22;10223;50.862;4.360;2023-05-10T02:05:35;13.20;99.90
20125;DHT22;10223;50.862;4.360;2023-05-10T02:08:05;13.20;99.90
20125;DHT22;10223;50.862;4.360;2023-05-10T02:10:36;13.30;99.90
20125;DHT22;10223;50.862;4.360;2023-05-10T02:13:06;13.30;99.90
20125;DHT22;10223;50.862;4.360;2023-05-10T02:15:34;13.20;99.90
20125;DHT22;10223;50.862;4.360;2023-05-10T02:18:02;13.20;99.90
20125;DHT22;10223;50.862;4.360;2023-05-10T02:20:33;13.20;99.90
20125;DHT22;10223;50.862;4.360;2023-05-10T02:23:02;13.20;99.90
20125;DHT22;10223;50.862;4.360;2023-05-10T02:25:30;13.10;99.90
20125;DHT22;10223;50.862;4.360;2023-05-10T02:28:01;13.20;99.90
20125;DHT22;10223;50.862;4.360;2023-05-10T02:30:31;13.30;99.90
20125;DHT22;10223;50.862;4.360;2023-05-10T02:32:59;13.30;99.90
20125;DHT22;10223;50.862;4.360;2023-05-10T02:35:28;13.20;99.90
20125;DHT22;10223;50.862;4.360;2023-05-10T02:37:57;13.30;99.90
20125;DHT22;10223;50.862;4.360;2023-05-10T02:40:26;13.20;99.90
20125;DHT22;10223;50.862;4.360;2023-05-10T02:42:55;13.20;99.90
20125;DHT22;10223;50.862;4.360;2023-05-10T02:45:25;13.20;99.90
20125;DHT22;10223;50.862;4.360;2023-05-10T02:47:54;13.30;99.90
20125;DHT22;10223;50.862;4.360;2023-05-10T02:50:22;13.30;99.90
20125;DHT22;10223;50.862;4.360;2023-05-10T02:53:00;13.30;99.90
20125;DHT22;10223;50.862;4.360;2023-05-10T02:55:32;13.20;99.90
20125;DHT22;10223;50.862;4.360;2023-05-10T02:58:02;13.20;99.90
20125;DHT22;10223;50.862;4.360;2023-05-10T03:00:29;13.30;99.90
20125;DHT22;10223;50.862;4.360;2023-05-10T03:02:56;13.20;99.90
20125;DHT22;10223;50.862;4.360;2023-05-10T03:05:23;13.30;99.90
20125;DHT22;10223;50.862;4.360;2023-05-10T03:07:50;13.20;99.90
20125;DHT22;10223;50.862;4.360;2023-05-10T03:10:22;13.20;99.90
20125;DHT22;10223;50.862;4.360;2023-05-10T03:13:02;13.20;99.90
20125;DHT22;10223;50.862;4.360;2023-05-10T03:15:39;13.30;99.90
20125;DHT22;10223;50.862;4.360;2023-05-10T03:18:10;13.20;99.90
20125;DHT22;10223;50.862;4.360;2023-05-10T03:20:42;13.20;99.90
20125;DHT22;10223;50.862;4.360;2023-05-10T03:23:13;13.20;99.90
20125;DHT22;10223;50.862;4.360;2023-05-10T03:25:47;13.20;99.90
20125;DHT22;10223;50.862;4.360;2023-05-10T03:28:16;13.20;99.90
20125;DHT22;10223;50.862;4.360;2023-05-10T03:30:44;13.20;99.90
20125;DHT22;10223;50.862;4.360;2023-05-10T03:33:12;13.20;99.90
20125;DHT22;10223;50.862;4.360;2023-05-10T03:35:40;13.30;99.90
20125;DHT22;10223;50.862;4.360;2023-05-10T03:38:11;13.40;99.90
20125;DHT22;10223;50.862;4.360;2023-05-10T03:40:38;13.50;99.90
20125;DHT22;10223;50.862;4.360;2023-05-10T03:43:06;13.40;99.90
20125;DHT22;10223;50.862;4.360;2023-05-10T03:45:33;13.40;99.90
20125;DHT22;10223;50.862;4.360;2023-05-10T03:48:01;13.40;99.90
20125;DHT22;10223;50.862;4.360;2023-05-10T03:50:28;13.50;99.90
20125;DHT22;10223;50.862;4.360;2023-05-10T03:52:55;13.50;99.90
20125;DHT22;10223;50.862;4.360;2023-05-10T03:55:22;13.40;99.90
20125;DHT22;10223;50.862;4.360;2023-05-10T03:57:49;13.50;99.90
20125;DHT22;10223;50.862;4.360;2023-05-10T04:00:18;13.40;99.90
20125;DHT22;10223;50.862;4.360;2023-05-10T04:02:45;13.40;99.90
20125;DHT22;10223;50.862;4.360;2023-05-10T04:05:12;13.40;99.90
20125;DHT22;10223;50.862;4.360;2023-05-10T04:07:39;13.30;99.90
20125;DHT22;10223;50.862;4.360;2023-05-10T04:10:06;13.30;99.90
20125;DHT22;10223;50.862;4.360;2023-05-10T04:12:33;13.30;99.90
20125;DHT22;10223;50.862;4.360;2023-05-10T04:15:00;13.30;99.90
20125;DHT22;10223;50.862;4.360;2023-05-10T04:17:29;13.30;99.90
20125;DHT22;10223;50.862;4.360;2023-05-10T04:19:56;13.40;99.90
20125;DHT22;10223;50.862;4.360;2023-05-10T04:22:27;13.40;99.90
20125;DHT22;10223;50.862;4.360;2023-05-10T04:24:54;13.30;99.90
20125;DHT22;10223;50.862;4.360;2023-05-10T04:27:23;13.40;99.90
20125;DHT22;10223;50.862;4.360;2023-05-10T04:29:50;13.40;99.90
20125;DHT22;10223;50.862;4.360;2023-05-10T04:32:17;13.50;99.90
20125;DHT22;10223;50.862;4.360;2023-05-10T04:34:46;13.50;99.90
20125;DHT22;10223;50.862;4.360;2023-05-10T04:37:12;13.50;99.90
20125;DHT22;10223;50.862;4.360;2023-05-10T04:39:39;13.50;99.90
20125;DHT22;10223;50.862;4.360;2023-05-10T04:42:06;13.40;99.90
20125;DHT22;10223;50.862;4.360;2023-05-10T04:44:33;13.50;99.90
20125;DHT22;10223;50.862;4.360;2023-05-10T04:47:00;13.60;99.90
20125;DHT22;10223;50.862;4.360;2023-05-10T04:49:28;13.60;99.90
20125;DHT22;10223;50.862;4.360;2023-05-10T04:51:56;13.70;99.90
20125;DHT22;10223;50.862;4.360;2023-05-10T04:54:23;13.60;99.90
20125;DHT22;10223;50.862;4.360;2023-05-10T04:56:50;13.70;99.90
20125;DHT22;10223;50.862;4.360;2023-05-10T04:59:17;13.70;99.90
20125;DHT22;10223;50.862;4.360;2023-05-10T05:01:44;13.70;99.90
20125;DHT22;10223;50.862;4.360;2023-05-10T05:04:11;13.70;99.90
20125;DHT22;10223;50.862;4.360;2023-05-10T05:06:40;13.80;99.90
20125;DHT22;10223;50.862;4.360;2023-05-10T05:09:08;13.80;99.90
20125;DHT22;10223;50.862;4.360;2023-05-10T05:11:35;13.80;99.90
20125;DHT22;10223;50.862;4.360;2023-05-10T05:14:02;13.90;99.90
20125;DHT22;10223;50.862;4.360;2023-05-10T05:16:30;13.80;99.90
20125;DHT22;10223;50.862;4.360;2023-05-10T05:18:57;13.70;99.90
20125;DHT22;10223;50.862;4.360;2023-05-10T05:21:24;13.80;99.90
20125;DHT22;10223;50.862;4.360;2023-05-10T05:23:52;13.80;99.90
20125;DHT22;10223;50.862;4.360;2023-05-10T05:26:20;13.70;99.90
20125;DHT22;10223;50.862;4.360;2023-05-10T05:28:47;13.60;99.90
20125;DHT22;10223;50.862;4.360;2023-05-10T05:31:18;13.50;99.90
20125;DHT22;10223;50.862;4.360;2023-05-10T05:33:44;13.60;99.90
20125;DHT22;10223;50.862;4.360;2023-05-10T05:36:12;13.60;99.90
20125;DHT22;10223;50.862;4.360;2023-05-10T05:38:38;13.50;99.90
20125;DHT22;10223;50.862;4.360;2023-05-10T05:41:05;13.50;99.90
20125;DHT22;10223;50.862;4.360;2023-05-10T05:43:34;13.50;99.90
20125;DHT22;10223;50.862;4.360;2023-05-10T05:46:00;13.60;99.90
20125;DHT22;10223;50.862;4.360;2023-05-10T05:48:29;13.50;99.90
20125;DHT22;10223;50.862;4.360;2023-05-10T05:50:56;13.50;99.90
20125;DHT22;10223;50.862;4.360;2023-05-10T05:53:23;13.40;99.90
20125;DHT22;10223;50.862;4.360;2023-05-10T05:55:53;13.50;99.90
20125;DHT22;10223;50.862;4.360;2023-05-10T05:58:20;13.40;99.90
20125;DHT22;10223;50.862;4.360;2023-05-10T06:00:49;13.40;99.90
20125;DHT22;10223;50.862;4.360;2023-05-10T06:03:19;13.50;99.90
20125;DHT22;10223;50.862;4.360;2023-05-10T06:05:46;13.70;99.90
20125;DHT22;10223;50.862;4.360;2023-05-10T06:08:13;13.60;99.90
20125;DHT22;10223;50.862;4.360;2023-05-10T06:10:40;13.70;99.90
20125;DHT22;10223;50.862;4.360;2023-05-10T06:13:07;13.60;99.90
20125;DHT22;10223;50.862;4.360;2023-05-10T06:15:34;13.60;99.90
20125;DHT22;10223;50.862;4.360;2023-05-10T06:18:02;13.50;99.90
20125;DHT22;10223;50.862;4.360;2023-05-10T06:20:29;13.40;99.90
20125;DHT22;10223;50.862;4.360;2023-05-10T06:22:57;13.40;99.90
20125;DHT22;10223;50.862;4.360;2023-05-10T06:25:24;13.40;99.90
20125;DHT22;10223;50.862;4.360;2023-05-10T06:27:51;13.40;99.90
20125;DHT22;10223;50.862;4.360;2023-05-10T06:30:23;13.20;99.90
20125;DHT22;10223;50.862;4.360;2023-05-10T06:32:52;13.30;99.90
20125;DHT22;10223;50.862;4.360;2023-05-10T06:35:21;13.30;99.90
20125;DHT22;10223;50.862;4.360;2023-05-10T06:37:48;13.30;99.90
20125;DHT22;10223;50.862;4.360;2023-05-10T06:40:15;13.30;99.90
20125;DHT22;10223;50.862;4.360;2023-05-10T06:42:42;13.30;99.90
20125;DHT22;10223;50.862;4.360;2023-05-10T06:45:10;13.20;99.90
20125;DHT22;10223;50.862;4.360;2023-05-10T06:47:38;13.00;99.90
20125;DHT22;10223;50.862;4.360;2023-05-10T06:50:06;13.00;99.90
20125;DHT22;10223;50.862;4.360;2023-05-10T06:52:34;13.00;99.90
20125;DHT22;10223;50.862;4.360;2023-05-10T06:55:02;12.90;99.90
20125;DHT22;10223;50.862;4.360;2023-05-10T06:57:29;13.00;99.90
20125;DHT22;10223;50.862;4.360;2023-05-10T06:59:56;13.00;99.90
20125;DHT22;10223;50.862;4.360;2023-05-10T07:02:23;12.90;99.90
20125;DHT22;10223;50.862;4.360;2023-05-10T07:04:50;12.90;99.90
20125;DHT22;10223;50.862;4.360;2023-05-10T07:07:18;13.00;99.90
20125;DHT22;10223;50.862;4.360;2023-05-10T07:09:46;12.90;99.90
20125;DHT22;10223;50.862;4.360;2023-05-10T07:12:15;12.80;99.90
20125;DHT22;10223;50.862;4.360;2023-05-10T07:14:42;12.90;99.90
20125;DHT22;10223;50.862;4.360;2023-05-10T07:17:09;12.80;99.90
20125;DHT22;10223;50.862;4.360;2023-05-10T07:19:36;12.80;99.90
20125;DHT22;10223;50.862;4.360;2023-05-10T07:22:03;12.80;99.90
20125;DHT22;10223;50.862;4.360;2023-05-10T07:24:30;12.60;99.90
20125;DHT22;10223;50.862;4.360;2023-05-10T07:26:58;12.60;99.90
20125;DHT22;10223;50.862;4.360;2023-05-10T07:29:25;12.70;99.90
20125;DHT22;10223;50.862;4.360;2023-05-10T07:31:52;12.80;99.90
20125;DHT22;10223;50.862;4.360;2023-05-10T07:34:19;12.90;99.90
20125;DHT22;10223;50.862;4.360;2023-05-10T07:36:48;12.80;99.90
20125;DHT22;10223;50.862;4.360;2023-05-10T07:39:15;12.80;99.90
20125;DHT22;10223;50.862;4.360;2023-05-10T07:41:42;12.60;99.90
20125;DHT22;10223;50.862;4.360;2023-05-10T07:44:11;12.60;99.90
20125;DHT22;10223;50.862;4.360;2023-05-10T07:46:38;12.60;99.90
20125;DHT22;10223;50.862;4.360;2023-05-10T07:49:05;12.50;99.90
20125;DHT22;10223;50.862;4.360;2023-05-10T07:51:32;12.40;99.90
20125;DHT22;10223;50.862;4.360;2023-05-10T07:53:59;12.50;99.90
20125;DHT22;10223;50.862;4.360;2023-05-10T07:56:28;12.50;99.90
20125;DHT22;10223;50.862;4.360;2023-05-10T07:58:57;12.40;99.90
20125;DHT22;10223;50.862;4.360;2023-05-10T08:01:31;12.60;99.90
20125;DHT22;10223;50.862;4.360;2023-05-10T08:03:58;12.60;99.90
20125;DHT22;10223;50.862;4.360;2023-05-10T08:06:25;12.70;99.90
20125;DHT22;10223;50.862;4.360;2023-05-10T08:08:53;12.80;99.90
20125;DHT22;10223;50.862;4.360;2023-05-10T08:11:21;12.90;99.90
20125;DHT22;10223;50.862;4.360;2023-05-10T08:13:49;13.00;99.90
20125;DHT22;10223;50.862;4.360;2023-05-10T08:16:19;13.10;99.90
20125;DHT22;10223;50.862;4.360;2023-05-10T08:18:47;13.10;99.90
20125;DHT22;10223;50.862;4.360;2023-05-10T08:21:16;13.10;99.90
20125;DHT22;10223;50.862;4.360;2023-05-10T08:23:43;13.00;99.90
20125;DHT22;10223;50.862;4.360;2023-05-10T08:26:10;13.20;99.90
20125;DHT22;10223;50.862;4.360;2023-05-10T08:28:37;13.40;99.90
20125;DHT22;10223;50.862;4.360;2023-05-10T08:31:08;13.40;99.90
20125;DHT22;10223;50.862;4.360;2023-05-10T08:33:35;13.50;99.90
20125;DHT22;10223;50.862;4.360;2023-05-10T08:36:03;13.50;99.90
20125;DHT22;10223;50.862;4.360;2023-05-10T08:38:33;13.50;99.90
20125;DHT22;10223;50.862;4.360;2023-05-10T08:41:01;13.50;99.90
20125;DHT22;10223;50.862;4.360;2023-05-10T08:43:29;13.70;99.90
20125;DHT22;10223;50.862;4.360;2023-05-10T08:45:58;13.70;99.90
20125;DHT22;10223;50.862;4.360;2023-05-10T08:48:29;13.50;99.90
20125;DHT22;10223;50.862;4.360;2023-05-10T08:50:58;13.50;99.90
20125;DHT22;10223;50.862;4.360;2023-05-10T08:53:31;13.70;99.90
20125;DHT22;10223;50.862;4.360;2023-05-10T08:56:01;13.70;99.90
20125;DHT22;10223;50.862;4.360;2023-05-10T08:58:28;13.70;99.90
20125;DHT22;10223;50.862;4.360;2023-05-10T09:00:57;13.80;99.90
20125;DHT22;10223;50.862;4.360;2023-05-10T09:03:24;13.80;99.90
20125;DHT22;10223;50.862;4.360;2023-05-10T09:05:52;13.60;99.90
20125;DHT22;10223;50.862;4.360;2023-05-10T09:08:21;13.50;99.90
20125;DHT22;10223;50.862;4.360;2023-05-10T09:10:52;13.50;99.90
20125;DHT22;10223;50.862;4.360;2023-05-10T09:13:21;13.50;99.90
20125;DHT22;10223;50.862;4.360;2023-05-10T09:15:49;13.50;99.90
20125;DHT22;10223;50.862;4.360;2023-05-10T09:18:16;13.40;99.90
20125;DHT22;10223;50.862;4.360;2023-05-10T09:20:52;13.30;99.90
20125;DHT22;10223;50.862;4.360;2023-05-10T09:23:19;13.30;99.90
20125;DHT22;10223;50.862;4.360;2023-05-10T09:25:46;13.40;99.90
20125;DHT22;10223;50.862;4.360;2023-05-10T09:28:14;13.40;99.90
20125;DHT22;10223;50.862;4.360;2023-05-10T09:30:41;13.20;99.90
20125;DHT22;10223;50.862;4.360;2023-05-10T09:33:08;13.20;99.90
20125;DHT22;10223;50.862;4.360;2023-05-10T09:35:35;13.30;99.90
20125;DHT22;10223;50.862;4.360;2023-05-10T09:38:04;13.30;99.90
20125;DHT22;10223;50.862;4.360;2023-05-10T09:40:31;13.40;99.90
20125;DHT22;10223;50.862;4.360;2023-05-10T09:42:59;13.20;99.90
20125;DHT22;10223;50.862;4.360;2023-05-10T09:45:31;13.20;99.90
20125;DHT22;10223;50.862;4.360;2023-05-10T09:48:00;13.20;99.90
20125;DHT22;10223;50.862;4.360;2023-05-10T09:50:27;13.10;99.90
20125;DHT22;10223;50.862;4.360;2023-05-10T09:52:56;13.10;99.90
20125;DHT22;10223;50.862;4.360;2023-05-10T09:55:25;13.20;99.90
20125;DHT22;10223;50.862;4.360;2023-05-10T09:57:59;13.10;99.90
20125;DHT22;10223;50.862;4.360;2023-05-10T10:00:28;13.00;99.90
20125;DHT22;10223;50.862;4.360;2023-05-10T10:02:56;13.10;99.90
20125;DHT22;10223;50.862;4.360;2023-05-10T10:05:28;13.20;99.90
20125;DHT22;10223;50.862;4.360;2023-05-10T10:07:57;13.10;99.90
20125;DHT22;10223;50.862;4.360;2023-05-10T10:10:24;12.90;99.90
20125;DHT22;10223;50.862;4.360;2023-05-10T10:12:52;13.00;99.90
20125;DHT22;10223;50.862;4.360;2023-05-10T10:15:19;12.90;99.90
20125;DHT22;10223;50.862;4.360;2023-05-10T10:17:48;13.00;99.90
20125;DHT22;10223;50.862;4.360;2023-05-10T10:20:16;13.00;99.90
20125;DHT22;10223;50.862;4.360;2023-05-10T10:22:43;12.90;99.90
20125;DHT22;10223;50.862;4.360;2023-05-10T10:25:12;13.00;99.90
20125;DHT22;10223;50.862;4.360;2023-05-10T10:27:45;13.20;99.90
20125;DHT22;10223;50.862;4.360;2023-05-10T10:30:23;13.30;99.90
20125;DHT22;10223;50.862;4.360;2023-05-10T10:33:08;13.30;99.90
20125;DHT22;10223;50.862;4.360;2023-05-10T10:35:38;13.30;99.90
20125;DHT22;10223;50.862;4.360;2023-05-10T10:38:08;13.20;99.90
20125;DHT22;10223;50.862;4.360;2023-05-10T10:40:35;13.20;99.90
20125;DHT22;10223;50.862;4.360;2023-05-10T10:43:21;13.30;99.90
20125;DHT22;10223;50.862;4.360;2023-05-10T10:46:09;13.40;99.90
20125;DHT22;10223;50.862;4.360;2023-05-10T10:48:39;13.40;99.90
20125;DHT22;10223;50.862;4.360;2023-05-10T10:51:07;13.40;99.90
20125;DHT22;10223;50.862;4.360;2023-05-10T10:53:34;13.50;99.90
20125;DHT22;10223;50.862;4.360;2023-05-10T10:56:08;13.60;99.90
20125;DHT22;10223;50.862;4.360;2023-05-10T10:58:36;13.70;99.90
20125;DHT22;10223;50.862;4.360;2023-05-10T11:01:14;13.70;99.90
20125;DHT22;10223;50.862;4.360;2023-05-10T11:06:42;13.70;99.90
20125;DHT22;10223;50.862;4.360;2023-05-10T11:09:11;13.80;99.90
20125;DHT22;10223;50.862;4.360;2023-05-10T11:11:48;13.80;99.90
20125;DHT22;10223;50.862;4.360;2023-05-10T11:14:22;13.90;99.90
20125;DHT22;10223;50.862;4.360;2023-05-10T11:16:49;13.90;99.90
20125;DHT22;10223;50.862;4.360;2023-05-10T11:19:19;13.90;99.90
20125;DHT22;10223;50.862;4.360;2023-05-10T11:21:48;13.80;99.90
20125;DHT22;10223;50.862;4.360;2023-05-10T11:24:16;13.80;99.90
20125;DHT22;10223;50.862;4.360;2023-05-10T11:26:49;13.80;99.90
20125;DHT22;10223;50.862;4.360;2023-05-10T11:29:16;13.80;99.90
20125;DHT22;10223;50.862;4.360;2023-05-10T11:31:44;13.80;99.90
20125;DHT22;10223;50.862;4.360;2023-05-10T11:34:22;14.00;99.90
20125;DHT22;10223;50.862;4.360;2023-05-10T11:36:53;13.90;99.90
20125;DHT22;10223;50.862;4.360;2023-05-10T11:39:20;14.10;99.90
20125;DHT22;10223;50.862;4.360;2023-05-10T11:41:48;14.00;99.90
20125;DHT22;10223;50.862;4.360;2023-05-10T11:44:18;14.20;99.90
20125;DHT22;10223;50.862;4.360;2023-05-10T11:46:45;14.30;99.90
20125;DHT22;10223;50.862;4.360;2023-05-10T11:49:12;14.30;99.90
20125;DHT22;10223;50.862;4.360;2023-05-10T11:51:39;14.60;99.90
20125;DHT22;10223;50.862;4.360;2023-05-10T11:54:10;14.50;99.90
20125;DHT22;10223;50.862;4.360;2023-05-10T11:56:38;14.50;99.90
20125;DHT22;10223;50.862;4.360;2023-05-10T11:59:06;14.60;99.90
20125;DHT22;10223;50.862;4.360;2023-05-10T12:01:33;14.60;99.90
20125;DHT22;10223;50.862;4.360;2023-05-10T12:04:03;14.80;99.90
20125;DHT22;10223;50.862;4.360;2023-05-10T12:06:31;14.70;99.90
20125;DHT22;10223;50.862;4.360;2023-05-10T12:09:01;14.80;99.90
20125;DHT22;10223;50.862;4.360;2023-05-10T12:11:36;14.80;99.90
20125;DHT22;10223;50.862;4.360;2023-05-10T12:14:04;14.80;99.90
20125;DHT22;10223;50.862;4.360;2023-05-10T12:16:32;15.00;99.90
20125;DHT22;10223;50.862;4.360;2023-05-10T12:19:00;15.10;99.90
20125;DHT22;10223;50.862;4.360;2023-05-10T12:21:28;15.20;99.90
20125;DHT22;10223;50.862;4.360;2023-05-10T12:23:59;15.30;99.90
20125;DHT22;10223;50.862;4.360;2023-05-10T12:26:28;15.30;99.90
20125;DHT22;10223;50.862;4.360;2023-05-10T12:29:12;15.40;99.90
20125;DHT22;10223;50.862;4.360;2023-05-10T12:31:50;15.40;99.90
20125;DHT22;10223;50.862;4.360;2023-05-10T12:34:26;15.50;99.90
20125;DHT22;10223;50.862;4.360;2023-05-10T12:36:53;15.70;99.90
20125;DHT22;10223;50.862;4.360;2023-05-10T12:39:20;15.80;99.90
20125;DHT22;10223;50.862;4.360;2023-05-10T12:41:47;16.00;99.90
20125;DHT22;10223;50.862;4.360;2023-05-10T12:44:21;16.30;99.90
20125;DHT22;10223;50.862;4.360;2023-05-10T12:46:48;16.60;99.90
20125;DHT22;10223;50.862;4.360;2023-05-10T12:49:15;16.70;99.90
20125;DHT22;10223;50.862;4.360;2023-05-10T12:51:42;17.10;99.90
20125;DHT22;10223;50.862;4.360;2023-05-10T12:54:09;17.20;99.90
20125;DHT22;10223;50.862;4.360;2023-05-10T12:56:36;16.90;99.90
20125;DHT22;10223;50.862;4.360;2023-05-10T12:59:03;17.00;99.90
20125;DHT22;10223;50.862;4.360;2023-05-10T13:01:31;17.00;99.90
20125;DHT22;10223;50.862;4.360;2023-05-10T13:03:58;17.40;99.90
20125;DHT22;10223;50.862;4.360;2023-05-10T13:06:26;17.80;99.90
20125;DHT22;10223;50.862;4.360;2023-05-10T13:08:52;18.00;99.90
20125;DHT22;10223;50.862;4.360;2023-05-10T13:11:19;18.10;99.90
20125;DHT22;10223;50.862;4.360;2023-05-10T13:13:47;18.20;99.90
20125;DHT22;10223;50.862;4.360;2023-05-10T13:16:13;18.60;99.90
20125;DHT22;10223;50.862;4.360;2023-05-10T13:18:42;19.10;99.90
20125;DHT22;10223;50.862;4.360;2023-05-10T13:21:09;20.00;99.90
20125;DHT22;10223;50.862;4.360;2023-05-10T13:23:36;20.40;99.90
20125;DHT22;10223;50.862;4.360;2023-05-10T13:26:03;20.70;99.90
20125;DHT22;10223;50.862;4.360;2023-05-10T13:28:30;20.80;99.90
20125;DHT22;10223;50.862;4.360;2023-05-10T13:30:57;20.80;99.90
20125;DHT22;10223;50.862;4.360;2023-05-10T13:33:25;20.90;99.90
20125;DHT22;10223;50.862;4.360;2023-05-10T13:35:53;20.90;99.90
20125;DHT22;10223;50.862;4.360;2023-05-10T13:38:20;20.20;99.90
20125;DHT22;10223;50.862;4.360;2023-05-10T13:40:47;20.30;99.90
20125;DHT22;10223;50.862;4.360;2023-05-10T13:43:17;20.20;99.90
20125;DHT22;10223;50.862;4.360;2023-05-10T13:45:44;20.20;99.90
20125;DHT22;10223;50.862;4.360;2023-05-10T13:48:11;20.30;99.90
20125;DHT22;10223;50.862;4.360;2023-05-10T13:50:38;19.10;99.90
20125;DHT22;10223;50.862;4.360;2023-05-10T13:53:07;19.20;99.90
20125;DHT22;10223;50.862;4.360;2023-05-10T13:55:34;19.20;99.90
20125;DHT22;10223;50.862;4.360;2023-05-10T13:58:01;18.80;99.90
20125;DHT22;10223;50.862;4.360;2023-05-10T14:00:28;18.60;99.90
20125;DHT22;10223;50.862;4.360;2023-05-10T14:02:55;18.30;99.90
20125;DHT22;10223;50.862;4.360;2023-05-10T14:05:22;18.00;99.90
20125;DHT22;10223;50.862;4.360;2023-05-10T14:07:50;17.80;99.90
20125;DHT22;10223;50.862;4.360;2023-05-10T14:10:18;17.50;99.90
20125;DHT22;10223;50.862;4.360;2023-05-10T14:12:45;17.50;99.90
20125;DHT22;10223;50.862;4.360;2023-05-10T14:15:12;17.60;99.90
20125;DHT22;10223;50.862;4.360;2023-05-10T14:17:39;17.50;99.90
20125;DHT22;10223;50.862;4.360;2023-05-10T14:20:07;17.40;99.90
20125;DHT22;10223;50.862;4.360;2023-05-10T14:22:35;17.20;99.90
20125;DHT22;10223;50.862;4.360;2023-05-10T14:25:02;17.20;99.90
20125;DHT22;10223;50.862;4.360;2023-05-10T14:27:31;17.40;99.90
20125;DHT22;10223;50.862;4.360;2023-05-10T14:29:58;17.70;99.90
20125;DHT22;10223;50.862;4.360;2023-05-10T14:32:25;17.80;99.90
20125;DHT22;10223;50.862;4.360;2023-05-10T14:34:53;17.70;99.90
20125;DHT22;10223;50.862;4.360;2023-05-10T14:37:21;17.70;99.90
20125;DHT22;10223;50.862;4.360;2023-05-10T14:39:48;17.70;99.90
20125;DHT22;10223;50.862;4.360;2023-05-10T14:42:14;17.70;99.90
20125;DHT22;10223;50.862;4.360;2023-05-10T14:44:43;17.60;99.90
20125;DHT22;10223;50.862;4.360;2023-05-10T14:47:10;17.50;99.90
20125;DHT22;10223;50.862;4.360;2023-05-10T14:49:37;17.20;99.90
20125;DHT22;10223;50.862;4.360;2023-05-10T14:52:04;16.90;99.90
20125;DHT22;10223;50.862;4.360;2023-05-10T14:54:31;16.80;99.90
20125;DHT22;10223;50.862;4.360;2023-05-10T14:56:58;16.40;99.90
20125;DHT22;10223;50.862;4.360;2023-05-10T14:59:25;16.20;99.90
20125;DHT22;10223;50.862;4.360;2023-05-10T15:01:54;16.20;99.90
20125;DHT22;10223;50.862;4.360;2023-05-10T15:04:21;16.00;99.90
20125;DHT22;10223;50.862;4.360;2023-05-10T15:06:48;16.00;99.90
20125;DHT22;10223;50.862;4.360;2023-05-10T15:09:15;15.80;99.90
20125;DHT22;10223;50.862;4.360;2023-05-10T15:11:42;15.60;99.90
20125;DHT22;10223;50.862;4.360;2023-05-10T15:14:10;15.40;99.90
20125;DHT22;10223;50.862;4.360;2023-05-10T15:16:37;15.40;99.90
20125;DHT22;10223;50.862;4.360;2023-05-10T15:19:05;15.50;99.90
20125;DHT22;10223;50.862;4.360;2023-05-10T15:21:32;15.30;99.90
20125;DHT22;10223;50.862;4.360;2023-05-10T15:24:04;15.40;99.90
20125;DHT22;10223;50.862;4.360;2023-05-10T15:26:31;15.40;99.90
20125;DHT22;10223;50.862;4.360;2023-05-10T15:28:58;15.50;99.90
20125;DHT22;10223;50.862;4.360;2023-05-10T15:31:25;15.50;99.90
20125;DHT22;10223;50.862;4.360;2023-05-10T15:34:00;15.70;99.90
20125;DHT22;10223;50.862;4.360;2023-05-10T15:36:28;15.80;99.90
20125;DHT22;10223;50.862;4.360;2023-05-10T15:38:55;15.80;99.90
20125;DHT22;10223;50.862;4.360;2023-05-10T15:41:22;15.70;99.90
20125;DHT22;10223;50.862;4.360;2023-05-10T15:43:51;15.70;99.90